Time;durP1;ratioP1;P1;durP2;ratioP2;P2;SDS_P1;SDS_P2;PMS_P1;PMS_P2;Temp;Humidity;BMP_temperature;BMP_pressure;BME280_temperature;BME280_humidity;BME280_pressure;Samples;Min_cycle;Max_cycle;Signal;HPM_P1;HPM_P2
2022/06/25 00:01:09;;;;;;;4.07;3.53;;;;;;;18.39;100.00;94324.09;5054528;28;20279;-61
2022/06/25 00:03:35;;;;;;;6.05;3.90;;;;;;;18.42;100.00;94313.41;5054553;28;20200;-59
2022/06/25 00:06:01;;;;;;;6.90;3.85;;;;;;;18.42;100.00;94317.78;5054434;28;20200;-60
2022/06/25 00:08:28;;;;;;;5.05;3.67;;;;;;;18.39;100.00;94310.44;5036284;28;20177;-59
2022/06/25 00:10:53;;;;;;;4.72;3.90;;;;;;;18.31;100.00;94306.22;5054496;28;20198;-61
2022/06/25 00:13:20;;;;;;;4.80;4.03;;;;;;;18.35;100.00;94310.00;5054276;28;20202;-60
2022/06/25 00:15:46;;;;;;;4.45;4.05;;;;;;;18.37;100.00;94307.25;5054537;28;20263;-60
2022/06/25 00:18:11;;;;;;;5.82;4.20;;;;;;;18.44;100.00;94301.19;5053976;28;20177;-60
2022/06/25 00:20:37;;;;;;;4.68;4.20;;;;;;;18.46;100.00;94297.66;5054253;28;20197;-59
2022/06/25 00:23:03;;;;;;;5.57;3.97;;;;;;;18.43;100.00;94294.47;5053870;28;20174;-59
2022/06/25 00:25:29;;;;;;;5.55;4.25;;;;;;;18.56;100.00;94308.41;5053627;28;20213;-63
2022/06/25 00:27:54;;;;;;;6.00;3.80;;;;;;;18.50;100.00;94298.88;5054007;28;20654;-62
2022/06/25 00:30:20;;;;;;;4.22;3.88;;;;;;;18.48;100.00;94293.09;5054103;28;20209;-60
2022/06/25 00:32:45;;;;;;;3.67;3.38;;;;;;;18.49;100.00;94292.91;5019349;28;20288;-60
2022/06/25 00:35:11;;;;;;;5.03;3.72;;;;;;;18.55;100.00;94302.47;5054880;28;20232;-61
2022/06/25 00:37:37;;;;;;;7.95;4.03;;;;;;;18.56;100.00;94304.06;5053732;28;20174;-60
2022/06/25 00:40:03;;;;;;;6.75;3.60;;;;;;;18.70;100.00;94304.97;5054019;28;20230;-60
2022/06/25 00:42:29;;;;;;;7.15;3.47;;;;;;;18.79;98.36;94311.53;5053627;28;20177;-60
2022/06/25 00:44:55;;;;;;;3.78;3.33;;;;;;;18.76;97.12;94309.34;5053925;28;20177;-60
2022/06/25 00:47:21;;;;;;;4.40;3.53;;;;;;;18.69;98.02;94304.16;5053348;28;20231;-59
2022/06/25 00:49:47;;;;;;;5.30;3.60;;;;;;;18.57;98.38;94294.53;5035606;28;20186;-59
2022/06/25 00:52:18;;;;;;;5.45;3.17;;;;;;;18.51;98.32;94290.94;5053568;28;20208;-60
2022/06/25 00:54:50;;;;;;;5.38;3.38;;;;;;;18.51;99.12;94290.94;5053704;28;20639;-59
2022/06/25 00:57:24;;;;;;;4.00;3.47;;;;;;;18.56;98.31;94300.69;5053173;28;20197;-61
2022/06/25 00:59:51;;;;;;;4.57;3.92;;;;;;;18.71;98.44;94298.81;5053393;28;20269;-59
2022/06/25 01:02:20;;;;;;;3.92;3.53;;;;;;;18.67;97.91;94295.00;5053318;28;20186;-60
2022/06/25 01:04:46;;;;;;;3.83;3.53;;;;;;;18.60;98.73;94286.47;5035412;28;20210;-60
2022/06/25 01:07:12;;;;;;;5.07;3.25;;;;;;;18.80;99.41;94287.38;5053162;28;20181;-61
2022/06/25 01:09:40;;;;;;;5.30;3.58;;;;;;;18.93;97.06;94308.06;5053185;28;20181;-60
2022/06/25 01:12:06;;;;;;;5.55;3.83;;;;;;;18.89;97.63;94304.28;5052800;28;20209;-61
2022/06/25 01:14:31;;;;;;;4.07;3.75;;;;;;;18.84;97.96;94306.63;5052825;28;20202;-64
2022/06/25 01:16:57;;;;;;;4.93;3.70;;;;;;;18.79;97.84;94306.38;5052888;28;20197;-60
2022/06/25 01:19:22;;;;;;;3.75;3.30;;;;;;;18.92;95.58;94332.25;5053286;28;20190;-62
2022/06/25 01:21:48;;;;;;;6.43;3.53;;;;;;;19.03;94.13;94337.66;5035110;28;20303;-60
2022/06/25 01:24:13;;;;;;;4.13;3.72;;;;;;;19.03;95.45;94331.72;5053098;28;20596;-60
2022/06/25 01:26:40;;;;;;;3.47;3.13;;;;;;;19.03;95.33;94322.22;5034735;28;20285;-60
2022/06/25 01:29:07;;;;;;;4.25;3.45;;;;;;;18.78;96.77;94307.38;5053004;28;20197;-61
2022/06/25 01:31:32;;;;;;;3.60;3.28;;;;;;;19.03;95.09;94321.41;5052826;28;20200;-60
2022/06/25 01:33:58;;;;;;;4.25;3.05;;;;;;;18.81;93.23;94337.91;5052759;28;20193;-61
2022/06/25 01:36:25;;;;;;;4.57;3.45;;;;;;;18.81;92.72;94335.34;5052413;28;20276;-59
2022/06/25 01:38:50;;;;;;;6.45;3.38;;;;;;;18.91;95.00;94302.31;5052635;28;20185;-62
2022/06/25 01:41:16;;;;;;;3.67;3.20;;;;;;;19.01;94.09;94320.78;5033844;28;20239;-59
2022/06/25 01:43:41;;;;;;;3.35;3.05;;;;;;;18.84;94.34;94317.75;5052315;28;20273;-60
2022/06/25 01:46:08;;;;;;;3.80;3.38;;;;;;;19.01;92.56;94331.09;5052694;28;20232;-59
2022/06/25 01:48:35;;;;;;;4.32;3.35;;;;;;;19.02;92.19;94330.94;5052592;28;20200;-59
2022/06/25 01:51:01;;;;;;;4.15;3.30;;;;;;;18.88;92.99;94323.31;5052462;28;20194;-60
2022/06/25 01:53:27;;;;;;;4.03;3.67;;;;;;;18.61;95.58;94301.72;5052193;28;20217;-60
2022/06/25 01:55:53;;;;;;;4.32;3.10;;;;;;;18.65;95.87;94309.84;5052100;28;20272;-60
2022/06/25 01:58:18;;;;;;;4.22;2.95;;;;;;;18.74;95.66;94311.31;5052083;28;20273;-61
2022/06/25 02:00:44;;;;;;;5.07;3.40;;;;;;;18.70;96.77;94310.09;5052299;28;20280;-61
2022/06/25 02:03:09;;;;;;;5.60;3.83;;;;;;;18.88;95.12;94331.03;5052244;28;20185;-61
2022/06/25 02:08:19;;;;;;;4.15;3.60;;;;;;;18.74;96.43;94326.78;5052497;28;20181;-59
2022/06/25 02:10:46;;;;;;;3.53;3.22;;;;;;;18.77;96.39;94326.38;5051616;28;20202;-61
2022/06/25 02:13:13;;;;;;;3.85;3.22;;;;;;;18.77;96.61;94321.22;5051915;28;20228;-61
2022/06/25 02:15:38;;;;;;;6.15;3.28;;;;;;;18.79;96.04;94332.16;5052538;28;20201;-59
2022/06/25 02:18:04;;;;;;;4.70;3.53;;;;;;;18.78;95.99;94335.72;5052268;28;20188;-59
2022/06/25 02:20:30;;;;;;;5.03;4.10;;;;;;;18.81;96.23;94333.56;5052285;28;20246;-61
2022/06/25 02:22:55;;;;;;;3.90;3.50;;;;;;;18.83;96.74;94328.22;5051840;28;20541;-60
2022/06/25 02:25:21;;;;;;;6.85;4.03;;;;;;;18.84;97.92;94317.75;5052415;28;20197;-58
2022/06/25 02:27:47;;;;;;;5.43;3.88;;;;;;;19.15;96.50;94322.47;5052092;28;20265;-60
2022/06/25 02:30:12;;;;;;;4.22;3.53;;;;;;;19.18;96.72;94319.53;5052223;28;20202;-61
2022/06/25 02:32:38;;;;;;;8.68;4.40;;;;;;;18.99;98.53;94304.72;5051878;28;20653;-61
2022/06/25 02:35:04;;;;;;;8.35;4.80;;;;;;;18.83;100.00;94300.69;5052594;28;20213;-62
2022/06/25 02:37:29;;;;;;;5.30;4.78;;;;;;;18.72;100.00;94313.28;5051930;28;20181;-59
2022/06/25 02:39:55;;;;;;;5.80;4.60;;;;;;;18.70;100.00;94315.25;5052043;28;20650;-60
2022/06/25 02:42:20;;;;;;;7.55;4.60;;;;;;;18.75;100.00;94325.78;5051994;28;20200;-60
2022/06/25 02:44:46;;;;;;;8.57;4.78;;;;;;;18.73;100.00;94330.31;5051967;28;20640;-59
2022/06/25 02:47:11;;;;;;;5.25;4.63;;;;;;;18.81;100.00;94338.72;5051985;28;20185;-59
2022/06/25 02:49:37;;;;;;;6.85;4.80;;;;;;;18.89;100.00;94345.50;5051828;28;20189;-60
2022/06/25 02:52:02;;;;;;;11.13;5.05;;;;;;;19.09;100.00;94325.81;5051527;28;20307;-59
2022/06/25 02:54:28;;;;;;;5.38;4.22;;;;;;;19.21;100.00;94326.88;5051804;28;20181;-61
2022/06/25 02:59:39;;;;;;;8.10;5.97;;;;;;;18.89;100.00;94320.53;5051718;28;20280;-60
2022/06/25 03:02:04;;;;;;;8.32;5.68;;;;;;;18.70;100.00;94338.44;5051500;28;20201;-59
2022/06/25 03:04:29;;;;;;;6.20;5.35;;;;;;;18.53;100.00;94335.31;5051727;28;20196;-59
2022/06/25 03:06:55;;;;;;;6.40;5.18;;;;;;;18.81;100.00;94330.97;5051577;28;20223;-58
2022/06/25 03:09:21;;;;;;;6.68;4.68;;;;;;;18.76;100.00;94329.97;5051690;28;20177;-60
2022/06/25 03:11:46;;;;;;;6.38;5.68;;;;;;;19.14;100.00;94324.28;5051231;28;20198;-59
2022/06/25 03:14:12;;;;;;;5.95;5.25;;;;;;;18.96;100.00;94321.38;5051314;28;20194;-59
2022/06/25 03:16:37;;;;;;;8.30;5.68;;;;;;;19.09;100.00;94334.34;5051748;28;20202;-60
2022/06/25 03:19:03;;;;;;;6.47;5.43;;;;;;;19.21;100.00;94337.16;5033469;28;20563;-62
2022/06/25 03:21:29;;;;;;;6.13;5.43;;;;;;;19.17;100.00;94338.53;5051686;28;20193;-61
2022/06/25 03:23:55;;;;;;;7.88;5.18;;;;;;;19.18;100.00;94340.16;5037031;28;20644;-62
2022/06/25 03:26:20;;;;;;;10.27;5.20;;;;;;;19.39;100.00;94347.03;5054913;28;20663;-62
2022/06/25 03:28:47;;;;;;;7.95;4.97;;;;;;;19.44;100.00;94337.72;5055084;28;20182;-63
2022/06/25 03:31:12;;;;;;;5.35;4.65;;;;;;;19.34;100.00;94337.28;5055233;28;20263;-60
2022/06/25 03:33:38;;;;;;;9.63;4.80;;;;;;;19.40;100.00;94341.69;5054996;28;20213;-60
2022/06/25 03:36:03;;;;;;;7.75;4.57;;;;;;;19.20;100.00;94338.19;5054863;28;20197;-63
2022/06/25 03:38:29;;;;;;;6.25;5.18;;;;;;;19.13;100.00;94327.00;5054919;28;20251;-63
2022/06/25 03:41:32;;;;;;;5.85;4.70;;;;;;;19.25;100.00;94335.81;5054664;28;20603;-62
2022/06/25 03:43:40;;;;;;;5.70;4.70;;;;;;;19.08;100.00;94331.97;5039836;28;20608;-61
2022/06/25 03:46:06;;;;;;;6.93;4.15;;;;;;;19.19;100.00;94328.84;5036791;28;20717;-59
2022/06/25 03:48:31;;;;;;;7.03;4.93;;;;;;;19.36;99.78;94357.72;5054560;28;20212;-60
2022/06/25 03:50:57;;;;;;;7.80;5.35;;;;;;;19.38;100.00;94343.66;5036844;28;20240;-61
2022/06/25 03:53:22;;;;;;;10.23;5.18;;;;;;;19.36;100.00;94337.91;5036514;28;20204;-60
2022/06/25 03:55:48;;;;;;;10.18;5.30;;;;;;;19.42;100.00;94331.16;5054451;28;20206;-59
2022/06/25 03:58:13;;;;;;;13.27;5.70;;;;;;;19.27;100.00;94326.91;5054260;28;20185;-61
2022/06/25 04:00:38;;;;;;;9.38;5.20;;;;;;;19.28;100.00;94320.78;5036467;28;20194;-61
2022/06/25 04:03:04;;;;;;;7.00;5.28;;;;;;;19.43;100.00;94323.28;5054509;28;20634;-60
2022/06/25 04:05:30;;;;;;;6.72;5.40;;;;;;;19.52;100.00;94337.56;5054069;28;20202;-61
2022/06/25 04:07:56;;;;;;;7.15;5.85;;;;;;;19.45;100.00;94331.59;5054255;28;20182;-60
2022/06/25 04:10:21;;;;;;;9.40;5.88;;;;;;;19.29;100.00;94327.50;5054637;28;20211;-62
2022/06/25 04:12:46;;;;;;;6.75;5.13;;;;;;;19.34;100.00;94318.44;5036255;28;20197;-59
2022/06/25 04:15:12;;;;;;;12.23;5.88;;;;;;;19.19;100.00;94319.31;5053959;28;20702;-60
2022/06/25 04:17:37;;;;;;;8.07;6.13;;;;;;;19.01;100.00;94333.69;5054229;28;20185;-60
2022/06/25 04:20:04;;;;;;;6.53;5.60;;;;;;;19.17;100.00;94333.38;5054468;28;20210;-60
2022/06/25 04:22:29;;;;;;;9.35;5.15;;;;;;;19.66;100.00;94333.25;5054202;28;20181;-61
2022/06/25 04:24:54;;;;;;;7.38;6.05;;;;;;;19.70;100.00;94339.63;5054395;28;20649;-61
2022/06/25 04:30:05;;;;;;;8.10;5.00;;;;;;;19.80;100.00;94342.63;5054528;28;20270;-59
2022/06/25 04:32:30;;;;;;;5.97;4.80;;;;;;;19.70;100.00;94353.31;5035857;28;20675;-60
2022/06/25 04:34:55;;;;;;;6.13;4.78;;;;;;;19.83;100.00;94368.06;5053627;28;20209;-61
2022/06/25 04:37:21;;;;;;;4.82;4.32;;;;;;;20.00;100.00;94370.09;5053898;28;20177;-60
2022/06/25 04:39:46;;;;;;;4.30;3.90;;;;;;;19.96;99.38;94375.84;5053489;28;20568;-59
2022/06/25 04:42:12;;;;;;;10.02;4.25;;;;;;;19.74;100.00;94351.94;5053938;28;20673;-58
2022/06/25 04:44:38;;;;;;;4.90;4.47;;;;;;;19.57;100.00;94347.31;5053604;28;20567;-59
2022/06/25 04:47:03;;;;;;;6.65;4.88;;;;;;;19.51;100.00;94350.66;5053571;28;20281;-61
2022/06/25 04:49:29;;;;;;;6.00;4.15;;;;;;;19.48;100.00;94354.41;5053531;28;20251;-61
2022/06/25 04:51:54;;;;;;;6.50;4.82;;;;;;;19.61;100.00;94362.22;5053067;28;20276;-60
2022/06/25 04:54:20;;;;;;;6.55;4.65;;;;;;;19.90;99.73;94384.34;5053234;28;20299;-64
2022/06/25 04:56:45;;;;;;;6.63;4.30;;;;;;;19.86;95.30;94421.84;5053263;28;20202;-61
2022/06/25 04:59:11;;;;;;;9.80;4.50;;;;;;;19.71;94.82;94409.09;5053225;28;20204;-62
2022/06/25 05:01:36;;;;;;;10.23;3.67;;;;;;;19.77;96.50;94387.69;5053281;28;20202;-62
2022/06/25 05:04:02;;;;;;;5.32;4.43;;;;;;;19.81;97.38;94373.41;5053451;28;20189;-62
2022/06/25 05:06:27;;;;;;;9.25;4.30;;;;;;;19.69;98.91;94369.81;5053067;28;20197;-60
2022/06/25 05:08:53;;;;;;;8.18;4.25;;;;;;;19.56;99.02;94374.09;5053137;28;20671;-60
2022/06/25 05:11:18;;;;;;;7.43;4.05;;;;;;;19.55;99.21;94383.63;5052862;28;20190;-61
2022/06/25 05:13:44;;;;;;;5.10;3.95;;;;;;;19.51;97.79;94377.25;5052704;28;20312;-60
2022/06/25 05:16:09;;;;;;;5.25;4.35;;;;;;;19.94;97.16;94391.53;5052845;28;20201;-62
2022/06/25 05:18:35;;;;;;;5.82;4.40;;;;;;;20.17;96.47;94398.16;5034882;28;20605;-61
2022/06/25 05:21:01;;;;;;;6.70;4.05;;;;;;;20.17;96.57;94400.72;5052978;28;20575;-63
2022/06/25 05:23:27;;;;;;;5.47;4.25;;;;;;;20.00;96.94;94385.59;5052800;28;20204;-63
2022/06/25 05:25:53;;;;;;;6.22;4.30;;;;;;;20.02;95.78;94408.63;5052904;28;20672;-62
2022/06/25 05:28:18;;;;;;;9.18;4.32;;;;;;;20.19;93.73;94435.72;5052588;28;20644;-61
2022/06/25 05:30:44;;;;;;;9.40;4.35;;;;;;;20.17;94.13;94418.78;5034701;28;20205;-61
2022/06/25 05:33:09;;;;;;;6.05;4.47;;;;;;;20.08;93.76;94416.38;5052490;28;20205;-62
2022/06/25 05:35:35;;;;;;;7.05;4.43;;;;;;;20.27;93.96;94414.91;5034745;28;20582;-61
2022/06/25 05:38:00;;;;;;;5.63;4.22;;;;;;;20.21;94.57;94400.19;5052561;28;20166;-60
2022/06/25 05:40:26;;;;;;;15.52;4.75;;;;;;;20.38;94.30;94408.38;5052884;28;20290;-61
2022/06/25 05:42:52;;;;;;;5.35;4.53;;;;;;;20.42;95.21;94388.91;5052501;28;20589;-60
2022/06/25 05:45:17;;;;;;;6.40;4.78;;;;;;;20.25;97.59;94367.00;5051843;28;20198;-58
2022/06/25 05:47:43;;;;;;;6.68;5.78;;;;;;;20.12;99.96;94354.06;5034521;28;20689;-60
2022/06/25 05:50:09;;;;;;;12.82;6.20;;;;;;;20.10;100.00;94367.94;5052774;28;20259;-60
2022/06/25 05:52:35;;;;;;;10.13;5.90;;;;;;;20.15;100.00;94366.56;5052229;28;20205;-63
2022/06/25 05:55:00;;;;;;;9.40;6.55;;;;;;;20.27;100.00;94377.94;5052529;28;20232;-60
2022/06/25 05:57:26;;;;;;;9.68;6.55;;;;;;;20.44;100.00;94366.28;5052286;28;20566;-61
2022/06/25 05:59:52;;;;;;;9.82;6.47;;;;;;;20.18;100.00;94373.94;5052627;28;20261;-60
2022/06/25 06:02:18;;;;;;;13.73;7.47;;;;;;;19.98;100.00;94364.34;5017821;28;20269;-61
2022/06/25 06:04:43;;;;;;;15.52;6.40;;;;;;;20.19;100.00;94375.50;5052539;28;20264;-61
2022/06/25 06:07:09;;;;;;;12.05;6.40;;;;;;;20.21;100.00;94373.56;5052242;28;20177;-62
2022/06/25 06:09:34;;;;;;;12.38;6.70;;;;;;;20.29;100.00;94384.50;5051889;28;20170;-61
2022/06/25 06:12:00;;;;;;;12.05;6.97;;;;;;;20.66;99.46;94393.50;5051873;28;20197;-60
2022/06/25 06:14:26;;;;;;;11.15;7.15;;;;;;;20.67;98.19;94406.22;5051876;28;20232;-60
2022/06/25 06:16:52;;;;;;;10.38;6.68;;;;;;;20.27;100.00;94372.78;5052035;28;20204;-65
2022/06/25 06:19:17;;;;;;;8.30;6.90;;;;;;;20.47;98.46;94407.19;5051927;28;20185;-60
2022/06/25 06:21:43;;;;;;;7.20;5.85;;;;;;;20.52;99.82;94394.50;5052073;28;20583;-60
2022/06/25 06:24:09;;;;;;;9.65;5.88;;;;;;;20.60;99.10;94394.31;5051993;28;20591;-61
2022/06/25 06:26:35;;;;;;;7.45;5.20;;;;;;;20.69;97.11;94411.19;5034110;28;20644;-63
2022/06/25 06:29:01;;;;;;;6.10;5.50;;;;;;;20.59;98.58;94387.53;5051864;28;20190;-59
2022/06/25 06:31:27;;;;;;;11.63;6.72;;;;;;;20.93;93.91;94447.59;5051681;28;20258;-63
2022/06/25 06:33:58;;;;;;;20.00;15.70;;;;;;;21.03;93.26;94426.56;5051646;28;20324;-59
2022/06/25 06:36:24;;;;;;;7.68;5.85;;;;;;;20.72;94.34;94401.28;5051526;28;20209;-63
2022/06/25 06:38:50;;;;;;;7.70;5.13;;;;;;;20.65;93.93;94418.56;5051747;28;20215;-63
2022/06/25 06:41:17;;;;;;;8.95;5.55;;;;;;;21.01;91.13;94449.19;5033713;28;20299;-61
2022/06/25 06:43:43;;;;;;;14.30;9.32;;;;;;;20.92;89.81;94455.56;5033703;28;20182;-59
2022/06/25 06:46:09;;;;;;;8.93;5.57;;;;;;;21.04;90.09;94446.25;5051752;28;20212;-59
2022/06/25 06:48:34;;;;;;;7.95;5.00;;;;;;;21.09;90.87;94430.94;5051451;28;20170;-60
2022/06/25 06:51:00;;;;;;;9.48;5.95;;;;;;;21.20;91.65;94419.19;5051400;28;20212;-60
2022/06/25 06:53:25;;;;;;;15.23;9.63;;;;;;;21.34;90.48;94437.09;5051580;28;20217;-60
2022/06/25 06:55:51;;;;;;;12.68;6.20;;;;;;;21.34;90.38;94429.34;5051394;28;20236;-61
2022/06/25 06:58:17;;;;;;;6.22;5.57;;;;;;;21.49;89.65;94442.06;5037176;28;20239;-61
2022/06/25 07:00:43;;;;;;;7.53;4.75;;;;;;;21.45;87.43;94461.56;5055517;28;20201;-62
2022/06/25 07:03:08;;;;;;;6.63;5.22;;;;;;;21.45;87.13;94461.56;5055471;28;20181;-63
2022/06/25 07:05:34;;;;;;;5.50;4.63;;;;;;;21.49;87.11;94463.53;5056072;28;20205;-59
2022/06/25 07:07:59;;;;;;;7.03;4.97;;;;;;;21.64;86.09;94463.31;5055516;28;20181;-60
2022/06/25 07:10:25;;;;;;;8.13;5.72;;;;;;;21.70;85.26;94480.63;5055104;28;20671;-60
2022/06/25 07:12:50;;;;;;;6.78;5.70;;;;;;;21.67;86.28;94463.69;5055153;28;20205;-61
2022/06/25 07:15:16;;;;;;;8.10;6.22;;;;;;;21.79;83.11;94499.31;5055151;28;20760;-61
2022/06/25 07:17:41;;;;;;;8.55;6.68;;;;;;;21.86;82.31;94505.31;5055210;28;20192;-61
2022/06/25 07:20:07;;;;;;;17.00;11.30;;;;;;;22.03;82.11;94489.16;5055526;28;20205;-61
2022/06/25 07:22:33;;;;;;;8.45;7.47;;;;;;;22.30;81.89;94489.88;5055317;28;20256;-60
2022/06/25 07:24:59;;;;;;;13.38;9.90;;;;;;;22.46;80.47;94504.94;5055525;28;20300;-60
2022/06/25 07:27:24;;;;;;;12.68;9.60;;;;;;;22.56;78.30;94533.81;5055070;28;20272;-62
2022/06/25 07:29:50;;;;;;;20.50;14.60;;;;;;;22.86;76.32;94544.47;5055199;28;20201;-61
2022/06/25 07:32:16;;;;;;;6.97;5.05;;;;;;;22.82;76.09;94538.09;5037256;28;20679;-62
2022/06/25 07:34:41;;;;;;;8.75;5.30;;;;;;;23.01;76.94;94514.63;5055225;28;20188;-61
2022/06/25 07:37:07;;;;;;;10.20;5.57;;;;;;;23.24;77.23;94509.72;5055082;28;20667;-64
2022/06/25 07:39:32;;;;;;;5.13;4.63;;;;;;;23.24;77.34;94504.53;5054967;28;20181;-61
2022/06/25 07:41:58;;;;;;;7.25;5.25;;;;;;;23.32;75.17;94540.63;5054648;28;20200;-62
2022/06/25 07:44:23;;;;;;;7.82;4.95;;;;;;;23.52;73.39;94581.19;5054935;28;20189;-60
2022/06/25 07:46:49;;;;;;;10.57;7.22;;;;;;;23.71;74.49;94549.09;5054883;28;20189;-64
2022/06/25 07:49:15;;;;;;;36.83;27.10;;;;;;;23.73;75.23;94531.50;5036919;28;20656;-63
2022/06/25 07:52:00;;;;;;;18.33;10.90;;;;;;;23.98;74.84;94542.66;5054763;28;20276;-64
2022/06/25 07:54:30;;;;;;;5.70;5.10;;;;;;;24.28;75.57;94520.19;5054706;28;20243;-63
2022/06/25 07:56:57;;;;;;;7.03;5.32;;;;;;;24.40;73.25;94557.44;5054610;28;20213;-60
2022/06/25 07:59:22;;;;;;;8.60;5.32;;;;;;;24.43;73.16;94549.22;5054883;28;20226;-61
2022/06/25 08:01:48;;;;;;;10.65;5.50;;;;;;;24.47;71.58;94565.97;5054432;28;20193;-61
2022/06/25 08:04:14;;;;;;;8.48;5.10;;;;;;;24.43;71.52;94557.03;5054422;28;20186;-60
2022/06/25 08:06:41;;;;;;;7.60;5.40;;;;;;;24.38;71.98;94543.88;5054272;28;20189;-60
2022/06/25 08:09:10;;;;;;;15.10;9.50;;;;;;;24.47;72.09;94547.78;5053236;28;20185;-60
2022/06/25 08:11:36;;;;;;;16.45;6.82;;;;;;;24.75;71.76;94557.69;5036182;28;20296;-60
2022/06/25 08:14:08;;;;;;;14.73;5.80;;;;;;;24.90;69.62;94590.13;5036173;28;20292;-60
2022/06/25 08:16:34;;;;;;;13.55;7.38;;;;;;;25.03;70.93;94562.34;5054278;28;20213;-59
2022/06/25 08:18:59;;;;;;;10.23;6.40;;;;;;;25.12;69.55;94590.44;5054210;28;20178;-60
2022/06/25 08:21:25;;;;;;;10.70;5.60;;;;;;;25.14;71.11;94551.16;5035874;28;20651;-60
2022/06/25 08:23:50;;;;;;;8.15;6.05;;;;;;;24.91;69.52;94577.88;5053817;28;20188;-61
2022/06/25 08:26:16;;;;;;;9.65;6.53;;;;;;;25.05;69.85;94552.50;5054067;28;20203;-62
2022/06/25 08:28:42;;;;;;;7.32;5.10;;;;;;;25.22;69.89;94553.47;5053863;28;20201;-63
2022/06/25 08:31:07;;;;;;;7.00;6.00;;;;;;;25.34;72.27;94510.84;5035762;28;20211;-60
2022/06/25 08:33:33;;;;;;;22.80;20.25;;;;;;;25.35;68.93;94564.47;5054015;28;20209;-62
2022/06/25 08:35:58;;;;;;;9.25;5.78;;;;;;;25.76;71.34;94525.41;5053635;28;20212;-61
2022/06/25 08:38:24;;;;;;;7.57;5.82;;;;;;;25.73;68.13;94579.78;5053659;28;20170;-63
2022/06/25 08:40:54;;;;;;;11.48;6.18;;;;;;;25.71;68.09;94577.38;5053653;28;20193;-62
2022/06/25 08:43:20;;;;;;;11.40;6.40;;;;;;;25.60;67.90;94572.16;5053747;28;20197;-62
2022/06/25 08:45:45;;;;;;;14.95;6.65;;;;;;;25.76;70.79;94529.81;5053620;28;20586;-63
2022/06/25 08:48:24;;;;;;;9.23;6.80;;;;;;;25.86;69.16;94560.53;5053264;28;20299;-63
2022/06/25 08:50:51;;;;;;;23.30;18.65;;;;;;;25.79;69.86;94529.38;5053255;28;20209;-61
2022/06/25 08:53:17;;;;;;;7.28;6.10;;;;;;;25.83;71.59;94514.06;5053162;28;20205;-60
2022/06/25 08:55:45;;;;;;;9.80;8.38;;;;;;;26.04;68.05;94579.44;5053337;28;20197;-59
2022/06/25 08:58:12;;;;;;;14.80;6.78;;;;;;;26.27;69.68;94553.41;5054404;28;20177;-61
2022/06/25 09:00:41;;;;;;;11.48;5.93;;;;;;;26.22;69.74;94540.25;5053492;28;20280;-60
2022/06/25 09:03:08;;;;;;;49.03;38.83;;;;;;;26.43;65.95;94604.06;5053304;28;20178;-60
2022/06/25 09:05:36;;;;;;;7.82;6.65;;;;;;;26.55;65.97;94608.25;5053510;28;20225;-63
2022/06/25 09:08:07;;;;;;;10.35;6.82;;;;;;;26.91;67.57;94569.84;5053547;28;20184;-61
2022/06/25 09:10:34;;;;;;;8.63;6.75;;;;;;;26.99;63.93;94655.59;5035266;28;20213;-61
2022/06/25 09:13:02;;;;;;;8.02;6.88;;;;;;;27.21;67.93;94576.44;5052915;28;20597;-61
2022/06/25 09:15:33;;;;;;;13.07;8.63;;;;;;;27.37;63.93;94648.81;5052743;28;20653;-60
2022/06/25 09:18:06;;;;;;;12.45;8.52;;;;;;;27.73;65.10;94618.13;5034907;28;20170;-62
2022/06/25 09:20:32;;;;;;;9.63;6.50;;;;;;;27.48;63.42;94655.03;5053128;28;20627;-61
2022/06/25 09:22:59;;;;;;;9.68;6.82;;;;;;;27.70;63.02;94652.53;5052777;28;20628;-60
2022/06/25 09:25:29;;;;;;;9.38;7.20;;;;;;;27.86;61.20;94680.53;5052777;28;20217;-60
2022/06/25 09:27:56;;;;;;;12.88;7.72;;;;;;;27.95;59.04;94707.88;5052784;28;20182;-62
2022/06/25 09:30:25;;;;;;;15.68;11.02;;;;;;;28.39;61.16;94635.66;5053384;28;20202;-61
2022/06/25 09:32:58;;;;;;;8.10;7.22;;;;;;;28.36;60.79;94644.00;5052943;28;20288;-60
2022/06/25 09:35:38;;;;;;;11.80;7.75;;;;;;;28.53;59.16;94682.19;5053065;28;20205;-64
2022/06/25 09:38:14;;;;;;;10.50;6.53;;;;;;;28.36;56.70;94709.38;5052971;28;20268;-63
2022/06/25 09:40:46;;;;;;;12.85;6.55;;;;;;;28.52;56.88;94693.69;5052903;28;20653;-65
2022/06/25 09:43:25;;;;;;;12.85;8.27;;;;;;;28.73;56.56;94707.88;5052435;28;20213;-62
2022/06/25 09:45:54;;;;;;;12.23;7.75;;;;;;;28.67;55.53;94703.59;5034055;28;20570;-60
2022/06/25 09:48:22;;;;;;;12.70;8.13;;;;;;;28.76;55.15;94713.44;5052117;28;20170;-61
2022/06/25 09:51:05;;;;;;;12.52;7.60;;;;;;;28.37;57.42;94638.50;5052316;28;20546;-61
2022/06/25 09:53:31;;;;;;;22.45;15.38;;;;;;;28.14;56.81;94649.94;5052115;28;20205;-61
2022/06/25 09:55:57;;;;;;;13.90;9.75;;;;;;;28.34;57.72;94617.28;5052038;28;20194;-64
2022/06/25 09:58:25;;;;;;;11.70;8.10;;;;;;;28.26;60.03;94557.53;5051875;28;20231;-61
2022/06/25 10:00:52;;;;;;;19.40;11.07;;;;;;;28.35;57.01;94651.03;5052180;28;20200;-62
2022/06/25 10:06:10;;;;;;;15.90;8.15;;;;;;;28.87;56.94;94643.66;5211247;22;20256;-61
2022/06/25 10:08:36;;;;;;;11.93;7.72;;;;;;;28.80;54.51;94690.97;5052438;28;20235;-63
2022/06/25 10:11:04;;;;;;;14.82;7.53;;;;;;;28.53;54.16;94690.03;5051813;28;20205;-65
2022/06/25 10:13:30;;;;;;;11.40;7.63;;;;;;;28.23;55.48;94652.94;5050878;28;20732;-61
2022/06/25 10:15:56;;;;;;;10.80;7.82;;;;;;;28.61;55.40;94653.00;5051454;28;20205;-61
2022/06/25 10:18:24;;;;;;;22.15;12.60;;;;;;;28.87;54.76;94664.59;5051706;28;20174;-62
2022/06/25 10:20:50;;;;;;;14.65;8.63;;;;;;;28.85;52.21;94719.03;5051900;28;20575;-65
2022/06/25 10:23:17;;;;;;;11.52;8.82;;;;;;;28.85;54.54;94656.19;5051948;28;20182;-60
2022/06/25 10:25:42;;;;;;;15.13;7.60;;;;;;;29.08;52.95;94703.13;5051646;28;20193;-63
2022/06/25 10:28:15;;;;;;;14.05;7.57;;;;;;;29.61;55.17;94629.09;5051744;28;20197;-61
2022/06/25 10:30:52;;;;;;;10.40;7.38;;;;;;;29.82;53.30;94673.63;5051434;28;20206;-61
2022/06/25 10:33:21;;;;;;;10.55;6.82;;;;;;;30.02;50.62;94735.19;5051236;28;20197;-61
2022/06/25 10:35:48;;;;;;;9.63;7.28;;;;;;;30.26;51.19;94713.63;5051727;28;20206;-59
2022/06/25 10:38:16;;;;;;;11.50;7.25;;;;;;;30.23;50.63;94708.06;5051428;28;20197;-61
2022/06/25 10:40:49;;;;;;;14.77;7.10;;;;;;;29.70;49.44;94743.72;5051757;28;20224;-61
2022/06/25 10:43:37;;;;;;;13.98;7.82;;;;;;;29.47;49.76;94725.63;5058470;22;20217;-62
2022/06/25 10:46:28;;;;;;;11.48;7.00;;;;;;;29.87;50.56;94693.88;5050165;28;20216;-63
2022/06/25 10:49:17;;;;;;;11.50;6.22;;;;;;;30.08;48.81;94731.56;5051295;28;20181;-61
2022/06/25 10:51:48;;;;;;;16.08;7.22;;;;;;;30.21;51.52;94660.31;5051348;28;20280;-61
2022/06/25 10:54:22;;;;;;;12.77;7.13;;;;;;;30.52;50.58;94680.53;5051416;28;20236;-60
2022/06/25 10:56:50;;;;;;;11.23;7.00;;;;;;;30.17;48.58;94716.94;5051227;28;20177;-62
2022/06/25 10:59:37;;;;;;;10.30;6.80;;;;;;;30.86;48.34;94742.22;5051174;28;20223;-61
2022/06/25 11:02:07;;;;;;;11.90;6.65;;;;;;;30.25;47.47;94751.41;5051795;28;20193;-61
2022/06/25 11:04:34;;;;;;;11.73;6.70;;;;;;;30.41;48.91;94702.47;5051221;28;20217;-64
2022/06/25 11:07:19;;;;;;;15.32;6.97;;;;;;;30.38;48.56;94705.63;5051451;28;20196;-60
2022/06/25 11:10:10;;;;;;;13.15;6.65;;;;;;;31.09;50.25;94649.88;5033278;28;20199;-62
2022/06/25 11:12:38;;;;;;;13.52;7.25;;;;;;;31.07;49.66;94670.34;5047205;28;20235;-61
2022/06/25 11:15:08;;;;;;;12.07;6.70;;;;;;;31.56;47.94;94731.31;5051079;28;20190;-63
2022/06/25 11:17:34;;;;;;;11.23;7.38;;;;;;;31.64;47.18;94722.13;5032864;28;20232;-62
2022/06/25 11:20:05;;;;;;;13.57;8.07;;;;;;;32.27;48.03;94708.59;5051037;28;20198;-65
2022/06/25 11:22:31;;;;;;;13.45;7.22;;;;;;;32.04;44.43;94788.81;5051692;28;20190;-63
2022/06/25 11:30:25;;;;;;;16.05;6.45;;;;;;;32.15;45.49;94729.91;5051338;28;20247;-62
2022/06/25 11:32:51;;;;;;;10.68;6.60;;;;;;;32.10;47.64;94663.31;5050787;28;20198;-61
2022/06/25 11:35:17;;;;;;;13.70;7.22;;;;;;;31.48;45.61;94705.50;5050714;28;20204;-61
2022/06/25 11:37:42;;;;;;;18.95;8.07;;;;;;;31.26;48.82;94599.75;5051284;28;20243;-61
2022/06/25 11:40:16;;;;;;;12.38;7.68;;;;;;;31.65;49.49;94577.25;5050782;28;20645;-62
2022/06/25 11:42:43;;;;;;;13.32;7.40;;;;;;;31.75;48.09;94631.69;5051638;28;20286;-61